createdAt,value
2018-03-28T00:01:52.910Z,6.80
2018-03-28T00:04:20.450Z,6.70
2018-03-28T00:06:47.946Z,6.70
2018-03-28T00:09:16.232Z,6.70
2018-03-28T00:11:43.729Z,6.60
2018-03-28T00:14:11.230Z,6.60
2018-03-28T00:16:39.514Z,6.60
2018-03-28T00:19:07.778Z,6.60
2018-03-28T00:21:36.061Z,6.70
2018-03-28T00:24:04.325Z,6.70
2018-03-28T00:26:32.617Z,6.70
2018-03-28T00:29:00.882Z,6.60
2018-03-28T00:31:28.402Z,6.60
2018-03-28T00:33:55.893Z,6.70
2018-03-28T00:36:23.393Z,6.70
2018-03-28T00:38:50.906Z,6.60
2018-03-28T00:41:18.403Z,6.60
2018-03-28T00:43:45.922Z,6.60
2018-03-28T00:46:14.391Z,6.50
2018-03-28T00:48:41.913Z,6.50
2018-03-28T00:51:21.487Z,6.50
2018-03-28T00:53:49.010Z,6.50
2018-03-28T00:56:16.558Z,6.50
2018-03-28T00:58:44.025Z,6.50
2018-03-28T01:01:11.548Z,6.50
2018-03-28T01:03:39.811Z,6.40
2018-03-28T01:06:07.330Z,6.40
2018-03-28T01:08:34.826Z,6.40
2018-03-28T01:11:02.341Z,6.40
2018-03-28T01:13:29.845Z,6.30
2018-03-28T01:15:57.379Z,6.30
2018-03-28T01:18:24.873Z,6.40
2018-03-28T01:20:52.450Z,6.30
2018-03-28T01:23:20.739Z,6.30
2018-03-28T01:25:48.230Z,6.30
2018-03-28T01:28:15.747Z,6.30
2018-03-28T01:30:44.006Z,6.40
2018-03-28T01:33:12.297Z,6.40
2018-03-28T01:35:40.553Z,6.40
2018-03-28T01:38:08.070Z,6.30
2018-03-28T01:40:35.562Z,6.40
2018-03-28T01:43:03.058Z,6.40
2018-03-28T01:45:30.578Z,6.30
2018-03-28T01:47:58.070Z,6.30
2018-03-28T01:50:25.591Z,6.30
2018-03-28T01:52:53.091Z,6.30
2018-03-28T01:55:20.611Z,6.30
2018-03-28T01:57:48.115Z,6.30
2018-03-28T02:00:15.638Z,6.30
2018-03-28T02:02:43.897Z,6.30
2018-03-28T02:05:12.162Z,6.30
2018-03-28T02:07:39.682Z,6.30
2018-03-28T02:10:07.190Z,6.30
2018-03-28T02:12:34.711Z,6.30
2018-03-28T02:15:02.211Z,6.30
2018-03-28T02:17:29.735Z,6.30
2018-03-28T02:19:57.234Z,6.30
2018-03-28T02:22:24.760Z,6.30
2018-03-28T02:24:52.258Z,6.30
2018-03-28T02:27:19.758Z,6.30
2018-03-28T02:29:47.279Z,6.30
2018-03-28T02:32:15.543Z,6.20
2018-03-28T02:34:43.067Z,6.20
2018-03-28T02:37:10.563Z,6.20
2018-03-28T02:39:38.082Z,6.20
2018-03-28T02:42:05.591Z,6.20
2018-03-28T02:44:33.886Z,6.20
2018-03-28T02:47:01.387Z,6.20
2018-03-28T02:49:28.887Z,6.30
2018-03-28T02:51:57.174Z,6.30
2018-03-28T02:54:24.670Z,6.30
2018-03-28T02:56:52.177Z,6.30
2018-03-28T02:59:20.435Z,6.30
2018-03-28T03:01:47.943Z,6.30
2018-03-28T03:04:15.433Z,6.40
2018-03-28T03:06:42.940Z,6.40
2018-03-28T03:09:16.114Z,6.50
2018-03-28T03:11:43.634Z,6.40
2018-03-28T03:14:11.183Z,6.50
2018-03-28T03:16:38.682Z,6.50
2018-03-28T03:19:06.202Z,6.50
2018-03-28T03:21:33.698Z,6.50
2018-03-28T03:24:01.218Z,6.60
2018-03-28T03:26:28.710Z,6.60
2018-03-28T03:28:56.225Z,6.60
2018-03-28T03:31:23.723Z,6.60
2018-03-28T03:33:51.217Z,6.60
2018-03-28T03:36:19.497Z,6.60
2018-03-28T03:38:47.754Z,6.70
2018-03-28T03:41:16.053Z,6.70
2018-03-28T03:43:43.546Z,6.70
2018-03-28T03:46:11.062Z,6.70
2018-03-28T03:48:39.321Z,6.80
2018-03-28T03:51:06.833Z,6.70
2018-03-28T03:53:34.321Z,6.80
2018-03-28T03:56:01.818Z,6.80
2018-03-28T03:58:29.941Z,6.80
2018-03-28T04:00:57.438Z,6.80
2018-03-28T04:03:25.721Z,6.90
2018-03-28T04:05:54.118Z,6.90
2018-03-28T04:08:21.634Z,6.80
2018-03-28T04:10:49.130Z,6.90
2018-03-28T04:13:16.626Z,6.90
2018-03-28T04:15:44.146Z,6.90
2018-03-28T04:18:12.076Z,6.90
2018-03-28T04:20:39.589Z,6.90
2018-03-28T04:23:07.080Z,6.90
2018-03-28T04:25:34.594Z,7.00
2018-03-28T04:28:02.086Z,7.00
2018-03-28T04:30:29.581Z,6.90
2018-03-28T04:32:57.866Z,6.90
2018-03-28T04:35:26.121Z,7.00
2018-03-28T04:37:53.633Z,6.90
2018-03-28T04:40:21.134Z,6.90
2018-03-28T04:42:48.653Z,6.90
2018-03-28T04:45:16.143Z,7.00
2018-03-28T04:47:43.641Z,7.00
2018-03-28T04:50:12.903Z,7.00
2018-03-28T04:52:40.408Z,7.00
2018-03-28T04:55:07.920Z,7.00
2018-03-28T04:57:35.413Z,7.00
2018-03-28T05:00:03.694Z,7.00
2018-03-28T05:02:31.186Z,7.00
2018-03-28T05:04:58.677Z,7.00
2018-03-28T05:07:27.686Z,7.10
2018-03-28T05:09:55.942Z,7.10
2018-03-28T05:12:23.463Z,7.10
2018-03-28T05:14:50.958Z,7.10
2018-03-28T05:17:18.710Z,7.10
2018-03-28T05:19:46.226Z,7.20
2018-03-28T05:22:13.717Z,7.20
2018-03-28T05:24:41.241Z,7.20
2018-03-28T05:27:08.737Z,7.30
2018-03-28T05:29:36.225Z,7.30
2018-03-28T05:32:03.746Z,7.30
2018-03-28T05:34:31.246Z,7.30
2018-03-28T05:36:59.530Z,7.40
2018-03-28T05:39:27.785Z,7.40
2018-03-28T05:41:55.277Z,7.40
2018-03-28T05:44:23.553Z,7.50
2018-03-28T05:46:51.848Z,7.50
2018-03-28T05:49:19.349Z,7.50
2018-03-28T05:51:46.842Z,7.60
2018-03-28T05:54:15.097Z,7.60
2018-03-28T05:56:42.609Z,7.60
2018-03-28T05:59:10.098Z,7.70
2018-03-28T06:01:37.627Z,7.70
2018-03-28T06:04:05.117Z,7.70
2018-03-28T06:06:32.631Z,7.70
2018-03-28T06:09:00.129Z,7.80
2018-03-28T06:11:27.626Z,7.80
2018-03-28T06:13:55.914Z,7.90
2018-03-28T06:16:23.409Z,7.90
2018-03-28T06:18:50.920Z,7.90
2018-03-28T06:21:19.182Z,8.00
2018-03-28T06:23:47.470Z,8.00
2018-03-28T06:26:15.858Z,8.00
2018-03-28T06:28:43.358Z,8.00
2018-03-28T06:31:10.875Z,8.10
2018-03-28T06:33:38.371Z,8.10
2018-03-28T06:36:05.889Z,8.10
2018-03-28T06:38:33.386Z,8.10
2018-03-28T06:41:00.907Z,8.10
2018-03-28T06:43:28.397Z,8.10
2018-03-28T06:45:55.890Z,8.20
2018-03-28T06:48:23.404Z,8.20
2018-03-28T06:50:50.897Z,8.20
2018-03-28T06:53:19.180Z,8.30
2018-03-28T06:55:46.675Z,8.30
2018-03-28T06:58:14.193Z,8.30
2018-03-28T07:00:41.686Z,8.30
2018-03-28T07:03:09.185Z,8.30
2018-03-28T07:05:36.695Z,8.40
2018-03-28T07:08:04.950Z,8.40
2018-03-28T07:10:32.462Z,8.30
2018-03-28T07:12:59.953Z,8.50
2018-03-28T07:15:27.470Z,8.50
2018-03-28T07:17:54.977Z,8.60
2018-03-28T07:20:22.462Z,8.60
2018-03-28T07:22:50.730Z,8.60
2018-03-28T07:25:18.990Z,8.60
2018-03-28T07:27:46.523Z,8.60
2018-03-28T07:30:14.052Z,8.60
2018-03-28T07:32:42.308Z,8.70
2018-03-28T07:35:10.562Z,8.70
2018-03-28T07:37:38.046Z,8.70
2018-03-28T07:40:06.319Z,8.80
2018-03-28T07:42:34.571Z,8.90
2018-03-28T07:45:02.086Z,8.90
2018-03-28T07:47:29.577Z,8.90
2018-03-28T07:49:57.089Z,9.00
2018-03-28T07:52:24.580Z,9.00
2018-03-28T07:54:52.090Z,9.10
2018-03-28T07:57:20.341Z,9.00
2018-03-28T07:59:47.826Z,9.00
2018-03-28T08:02:16.106Z,9.10
2018-03-28T08:04:44.354Z,9.20
2018-03-28T08:07:11.865Z,9.20
2018-03-28T08:09:39.361Z,9.30
2018-03-28T08:12:06.877Z,9.50
2018-03-28T08:14:34.366Z,9.50
2018-03-28T08:17:01.858Z,9.50
2018-03-28T08:19:30.136Z,9.70
2018-03-28T08:21:58.389Z,9.60
2018-03-28T08:24:25.899Z,9.60
2018-03-28T08:26:53.386Z,9.60
2018-03-28T08:29:21.746Z,9.70
2018-03-28T08:31:49.229Z,9.70
2018-03-28T08:34:16.717Z,9.80
2018-03-28T08:36:44.994Z,9.90
2018-03-28T08:39:12.484Z,9.90
2018-03-28T08:41:40.002Z,9.90
2018-03-28T08:44:07.494Z,9.90
2018-03-28T08:46:35.010Z,9.90
2018-03-28T08:49:02.501Z,10.00
2018-03-28T08:51:29.998Z,10.10
2018-03-28T08:53:57.512Z,10.20
2018-03-28T08:56:25.768Z,10.30
2018-03-28T08:58:53.278Z,10.30
2018-03-28T09:01:20.770Z,10.30
2018-03-28T09:03:48.282Z,10.20
2018-03-28T09:06:15.774Z,10.20
2018-03-28T09:08:43.290Z,10.20
2018-03-28T09:11:10.785Z,10.20
2018-03-28T09:13:38.273Z,10.20
2018-03-28T09:16:05.794Z,10.30
2018-03-28T09:18:33.281Z,10.30
2018-03-28T09:21:00.799Z,10.40
2018-03-28T09:23:28.290Z,10.50
2018-03-28T09:25:56.170Z,10.50
2018-03-28T09:28:23.666Z,10.70
2018-03-28T09:30:51.161Z,10.80
2018-03-28T09:33:18.677Z,10.90
2018-03-28T09:35:46.614Z,10.90
2018-03-28T09:38:15.638Z,10.90
2018-03-28T09:40:43.893Z,10.80
2018-03-28T09:43:12.453Z,10.80
2018-03-28T09:45:39.949Z,10.60
2018-03-28T09:48:08.205Z,10.60
2018-03-28T09:50:35.710Z,10.60
2018-03-28T09:53:03.207Z,10.60
2018-03-28T09:55:30.717Z,10.70
2018-03-28T09:57:58.211Z,10.80
2018-03-28T10:00:26.659Z,10.90
2018-03-28T10:02:59.804Z,10.90
2018-03-28T10:05:33.117Z,10.80
2018-03-28T10:08:01.373Z,10.80
2018-03-28T10:10:30.375Z,10.80
2018-03-28T10:12:57.885Z,10.80
2018-03-28T10:15:25.373Z,10.90
2018-03-28T10:17:52.881Z,11.00
2018-03-28T10:20:20.377Z,10.90
2018-03-28T10:22:47.885Z,10.90
2018-03-28T10:25:16.138Z,11.40
2018-03-28T10:27:43.650Z,11.40
2018-03-28T10:30:11.490Z,11.70
2018-03-28T10:32:39.744Z,12.60
2018-03-28T10:35:07.279Z,12.60
2018-03-28T10:37:34.761Z,13.20
2018-03-28T10:40:02.274Z,13.30
2018-03-28T10:42:29.765Z,13.10
2018-03-28T10:44:57.279Z,12.80
2018-03-28T10:47:24.774Z,12.40
2018-03-28T10:49:52.291Z,12.10
2018-03-28T10:52:19.794Z,12.20
2018-03-28T10:54:47.291Z,12.40
2018-03-28T10:57:15.567Z,12.70
2018-03-28T10:59:43.825Z,12.80
2018-03-28T11:02:11.342Z,12.80
2018-03-28T11:04:38.829Z,12.90
2018-03-28T11:07:06.340Z,13.10
2018-03-28T11:09:33.837Z,13.10
2018-03-28T11:12:01.354Z,14.30
2018-03-28T11:14:28.840Z,15.20
2018-03-28T11:16:56.349Z,15.30
2018-03-28T11:19:24.611Z,14.30
2018-03-28T11:21:52.101Z,14.20
2018-03-28T11:24:19.609Z,13.60
2018-03-28T11:26:47.102Z,13.10
2018-03-28T11:29:15.381Z,12.60
2018-03-28T11:31:43.641Z,12.60
2018-03-28T11:34:11.922Z,12.70
2018-03-28T11:36:40.182Z,12.60
2018-03-28T11:39:08.062Z,12.60
2018-03-28T11:41:36.318Z,12.10
2018-03-28T11:44:03.806Z,12.10
2018-03-28T11:46:32.082Z,11.80
2018-03-28T11:49:00.337Z,11.70
2018-03-28T11:51:27.889Z,11.70
2018-03-28T11:53:55.386Z,11.60
2018-03-28T11:56:22.903Z,11.50
2018-03-28T11:58:50.396Z,11.50
2018-03-28T12:01:18.673Z,11.50
2018-03-28T12:03:46.925Z,11.40
2018-03-28T12:06:14.417Z,11.40
2018-03-28T12:08:41.926Z,11.40
2018-03-28T12:11:09.417Z,11.30
2018-03-28T12:13:37.695Z,11.40
2018-03-28T12:16:05.946Z,11.40
2018-03-28T12:18:34.233Z,11.30
2018-03-28T12:21:01.727Z,11.30
2018-03-28T12:23:29.251Z,11.30
2018-03-28T12:25:56.746Z,11.20
2018-03-28T12:28:28.535Z,11.10
2018-03-28T12:30:56.053Z,11.10
2018-03-28T12:33:23.541Z,11.20
2018-03-28T12:35:51.072Z,11.20
2018-03-28T12:38:18.566Z,11.10
2018-03-28T12:40:46.078Z,11.10
2018-03-28T12:43:14.333Z,11.20
2018-03-28T12:45:41.892Z,11.20
2018-03-28T12:48:09.369Z,11.30
2018-03-28T12:50:37.649Z,11.90
2018-03-28T12:53:05.902Z,12.50
2018-03-28T12:55:33.402Z,12.50
2018-03-28T12:58:00.951Z,13.20
2018-03-28T13:00:28.489Z,14.00
2018-03-28T13:02:56.773Z,15.20
2018-03-28T13:05:25.034Z,15.20
2018-03-28T13:07:52.571Z,15.10
2018-03-28T13:10:20.062Z,15.30
2018-03-28T13:12:48.346Z,16.20
2018-03-28T13:15:17.464Z,16.50
2018-03-28T13:17:44.953Z,16.50
2018-03-28T13:20:13.161Z,16.60
2018-03-28T13:22:41.414Z,16.30
2018-03-28T13:25:08.928Z,16.30
2018-03-28T13:27:36.425Z,16.20
2018-03-28T13:30:03.942Z,15.90
2018-03-28T13:32:31.438Z,15.90
2018-03-28T13:34:59.850Z,16.00
2018-03-28T13:37:28.110Z,15.60
2018-03-28T13:39:55.604Z,15.60
2018-03-28T13:42:23.120Z,15.10
2018-03-28T13:44:50.610Z,14.70
2018-03-28T13:47:18.885Z,14.10
2018-03-28T13:49:47.133Z,13.80
2018-03-28T13:52:14.645Z,13.80
2018-03-28T13:54:42.133Z,13.70
2018-03-28T13:57:11.003Z,13.50
2018-03-28T13:59:38.493Z,13.40
2018-03-28T14:02:06.007Z,13.20
2018-03-28T14:04:33.502Z,13.10
2018-03-28T14:07:00.989Z,13.00
2018-03-28T14:09:28.501Z,12.80
2018-03-28T14:11:55.992Z,12.70
2018-03-28T14:14:23.505Z,12.70
2018-03-28T14:16:51.000Z,12.60
2018-03-28T14:19:18.514Z,12.60
2018-03-28T14:21:46.055Z,12.50
2018-03-28T14:24:13.545Z,12.50
2018-03-28T14:26:41.038Z,12.40
2018-03-28T14:29:08.551Z,12.30
2018-03-28T14:31:36.144Z,12.20
2018-03-28T14:34:03.638Z,12.10
2018-03-28T14:36:31.914Z,12.00
2018-03-28T14:39:00.173Z,12.00
2018-03-28T14:41:27.686Z,12.00
2018-03-28T14:43:55.178Z,12.00
2018-03-28T14:46:22.694Z,12.00
2018-03-28T14:48:50.194Z,11.90
2018-03-28T14:51:17.706Z,11.80
2018-03-28T14:53:45.193Z,11.60
2018-03-28T14:56:12.714Z,11.40
2018-03-28T14:58:40.209Z,11.30
2018-03-28T15:01:07.706Z,11.30
2018-03-28T15:03:35.217Z,11.20
2018-03-28T15:06:02.707Z,11.10
2018-03-28T15:08:30.226Z,11.00
2018-03-28T15:10:57.717Z,10.90
2018-03-28T15:13:25.226Z,10.80
2018-03-28T15:15:52.717Z,10.70
2018-03-28T15:18:20.226Z,10.50
2018-03-28T15:20:48.481Z,10.30
2018-03-28T15:23:15.978Z,10.30
2018-03-28T15:25:43.805Z,10.10
2018-03-28T15:28:11.293Z,10.00
2018-03-28T15:30:39.565Z,9.80
2018-03-28T15:33:07.813Z,9.70
2018-03-28T15:35:35.322Z,9.70
2018-03-28T15:38:02.821Z,9.70
2018-03-28T15:40:30.329Z,9.60
2018-03-28T15:42:57.809Z,9.50
2018-03-28T15:45:25.298Z,9.60
2018-03-28T15:47:52.811Z,9.60
2018-03-28T15:50:20.350Z,9.50
2018-03-28T15:52:48.178Z,9.50
2018-03-28T15:55:15.665Z,9.50
2018-03-28T15:57:43.942Z,9.60
2018-03-28T16:00:12.644Z,9.60
2018-03-28T16:02:40.154Z,9.60
2018-03-28T16:05:07.641Z,9.50
2018-03-28T16:07:35.925Z,9.50
2018-03-28T16:10:04.177Z,9.50
2018-03-28T16:12:31.661Z,9.50
2018-03-28T16:14:59.933Z,9.50
2018-03-28T16:17:28.190Z,9.40
2018-03-28T16:19:55.698Z,9.40
2018-03-28T16:22:23.186Z,9.30
2018-03-28T16:24:51.457Z,9.20
2018-03-28T16:27:18.941Z,9.10
2018-03-28T16:29:46.454Z,9.20
2018-03-28T16:32:13.949Z,9.10
2018-03-28T16:34:41.450Z,9.20
2018-03-28T16:37:08.937Z,9.10
2018-03-28T16:39:36.420Z,9.00
2018-03-28T16:42:03.921Z,9.10
2018-03-28T16:44:31.405Z,9.10
2018-03-28T16:46:58.924Z,9.10
2018-03-28T16:49:27.177Z,9.10
2018-03-28T16:51:56.207Z,9.00
2018-03-28T16:54:24.458Z,8.90
2018-03-28T16:56:51.966Z,8.90
2018-03-28T16:59:19.457Z,8.90
2018-03-28T17:01:46.984Z,8.80
2018-03-28T17:04:14.489Z,8.80
2018-03-28T17:06:42.238Z,8.80
2018-03-28T17:09:10.022Z,8.80
2018-03-28T17:11:37.512Z,8.80
2018-03-28T17:14:05.033Z,8.70
2018-03-28T17:16:33.322Z,8.80
2018-03-28T17:19:01.599Z,8.80
2018-03-28T17:21:29.858Z,8.80
2018-03-28T17:23:57.373Z,8.80
2018-03-28T17:26:24.857Z,8.80
2018-03-28T17:28:52.559Z,8.80
2018-03-28T17:31:20.813Z,8.80
2018-03-28T17:33:48.321Z,8.80
2018-03-28T17:36:15.822Z,8.80
2018-03-28T17:38:43.342Z,8.80
2018-03-28T17:41:10.830Z,8.80
2018-03-28T17:43:38.319Z,8.80
2018-03-28T17:46:06.598Z,8.80
2018-03-28T17:48:34.854Z,8.90
2018-03-28T17:51:02.367Z,8.90
2018-03-28T17:53:29.862Z,8.90
2018-03-28T17:55:57.378Z,8.90
2018-03-28T17:58:24.865Z,8.90
2018-03-28T18:00:52.362Z,9.00
2018-03-28T18:03:20.641Z,9.00
2018-03-28T18:05:48.898Z,9.10
2018-03-28T18:08:16.414Z,9.00
2018-03-28T18:10:43.909Z,9.10
2018-03-28T18:13:11.430Z,9.20
2018-03-28T18:15:38.922Z,9.20
2018-03-28T18:18:06.418Z,9.20
2018-03-28T18:20:34.970Z,9.20
2018-03-28T18:23:02.466Z,9.20
2018-03-28T18:25:29.985Z,9.20
2018-03-28T18:27:57.473Z,9.20
2018-03-28T18:30:25.749Z,9.30
2018-03-28T18:32:54.010Z,9.30
2018-03-28T18:35:21.522Z,9.20
2018-03-28T18:37:49.009Z,9.30
2018-03-28T18:40:16.498Z,9.30
2018-03-28T18:42:44.778Z,9.30
2018-03-28T18:45:13.030Z,9.30
2018-03-28T18:47:40.586Z,9.30
2018-03-28T18:50:08.045Z,9.30
2018-03-28T18:52:35.550Z,9.30
2018-03-28T18:55:03.034Z,9.40
2018-03-28T18:57:30.537Z,9.30
2018-03-28T18:59:58.813Z,9.30
2018-03-28T19:02:27.066Z,9.30
2018-03-28T19:04:54.578Z,9.30
2018-03-28T19:07:22.077Z,9.30
2018-03-28T19:09:49.590Z,9.30
2018-03-28T19:12:17.079Z,9.30
2018-03-28T19:14:44.585Z,9.30
2018-03-28T19:17:12.838Z,9.30
2018-03-28T19:19:40.330Z,9.30
2018-03-28T19:22:07.841Z,9.30
2018-03-28T19:24:35.348Z,9.30
2018-03-28T19:27:02.857Z,9.30
2018-03-28T19:29:31.114Z,9.30
2018-03-28T19:31:58.634Z,9.30
2018-03-28T19:34:26.895Z,9.30
2018-03-28T19:36:55.149Z,9.30
2018-03-28T19:39:22.658Z,9.30
2018-03-28T19:41:50.150Z,9.30
2018-03-28T19:44:17.661Z,9.30
2018-03-28T19:46:45.917Z,9.30
2018-03-28T19:49:13.433Z,9.30
2018-03-28T19:51:40.918Z,9.30
2018-03-28T19:54:09.449Z,9.30
2018-03-28T19:56:36.937Z,9.30
2018-03-28T19:59:04.421Z,9.30
2018-03-28T20:01:31.934Z,9.20
2018-03-28T20:03:59.416Z,9.20
2018-03-28T20:06:26.925Z,9.20
2018-03-28T20:08:55.169Z,9.20
2018-03-28T20:11:22.677Z,9.20
2018-03-28T20:13:50.166Z,9.30
2018-03-28T20:16:17.658Z,9.30
2018-03-28T20:18:45.174Z,9.30
2018-03-28T20:21:12.665Z,9.30
2018-03-28T20:23:40.173Z,9.30
2018-03-28T20:26:07.662Z,9.40
2018-03-28T20:28:35.170Z,9.40
2018-03-28T20:31:02.668Z,9.40
2018-03-28T20:33:30.157Z,9.40
2018-03-28T20:35:57.678Z,9.40
2018-03-28T20:38:25.161Z,9.40
2018-03-28T20:40:52.673Z,9.40
2018-03-28T20:43:20.157Z,9.50
2018-03-28T20:45:47.666Z,9.50
2018-03-28T20:48:15.913Z,9.50
2018-03-28T20:50:43.402Z,9.40
2018-03-28T20:53:11.677Z,9.50
2018-03-28T20:55:39.930Z,9.50
2018-03-28T20:58:08.306Z,9.50
2018-03-28T21:00:35.795Z,9.50
2018-03-28T21:03:04.074Z,9.50
2018-03-28T21:05:32.334Z,9.50
2018-03-28T21:07:59.843Z,9.60
2018-03-28T21:10:27.329Z,9.60
2018-03-28T21:12:54.837Z,9.60
2018-03-28T21:15:22.327Z,9.60
2018-03-28T21:17:49.817Z,9.60
2018-03-28T21:20:17.444Z,9.50
2018-03-28T21:22:45.000Z,9.50
2018-03-28T21:25:12.498Z,9.50
2018-03-28T21:27:39.981Z,9.50
2018-03-28T21:30:07.489Z,9.50
2018-03-28T21:32:34.978Z,9.50
2018-03-28T21:35:03.254Z,9.40
2018-03-28T21:37:30.741Z,9.40
2018-03-28T21:39:58.261Z,9.40
2018-03-28T21:42:25.753Z,9.40
2018-03-28T21:44:53.243Z,9.40
2018-03-28T21:47:20.754Z,9.40
2018-03-28T21:49:49.009Z,9.40
2018-03-28T21:52:16.517Z,9.40
2018-03-28T21:54:44.005Z,9.30
2018-03-28T21:57:11.513Z,9.30
2018-03-28T21:59:39.765Z,9.30
2018-03-28T22:02:08.050Z,9.30
2018-03-28T22:04:36.301Z,9.30
2018-03-28T22:07:03.789Z,9.20
2018-03-28T22:09:32.061Z,9.20
2018-03-28T22:12:00.310Z,9.20
2018-03-28T22:14:27.817Z,9.20
2018-03-28T22:16:55.306Z,9.20
2018-03-28T22:19:22.814Z,9.10
2018-03-28T22:21:51.065Z,9.00
2018-03-28T22:24:18.574Z,9.00
2018-03-28T22:26:46.060Z,9.00
2018-03-28T22:29:14.338Z,9.00
2018-03-28T22:31:41.829Z,8.90
2018-03-28T22:34:09.313Z,8.90
2018-03-28T22:36:36.825Z,8.90
2018-03-28T22:39:05.082Z,8.80
2018-03-28T22:41:32.594Z,8.80
2018-03-28T22:44:00.850Z,8.70
2018-03-28T22:46:28.365Z,8.70
2018-03-28T22:48:55.845Z,8.70
2018-03-28T22:51:23.354Z,8.60
2018-03-28T22:53:50.837Z,8.60
2018-03-28T22:56:18.350Z,8.50
2018-03-28T22:58:46.605Z,8.40
2018-03-28T23:01:14.096Z,8.40
2018-03-28T23:03:42.375Z,8.40
2018-03-28T23:06:10.630Z,8.30
2018-03-28T23:08:38.146Z,8.30
2018-03-28T23:11:05.629Z,8.30
2018-03-28T23:13:33.138Z,8.20
2018-03-28T23:16:00.625Z,8.10
2018-03-28T23:18:28.132Z,8.10
2018-03-28T23:20:56.386Z,8.00
2018-03-28T23:23:23.874Z,8.00
2018-03-28T23:25:52.163Z,7.90
2018-03-28T23:28:19.649Z,7.90
2018-03-28T23:30:47.158Z,7.80
2018-03-28T23:33:15.410Z,7.80
2018-03-28T23:35:42.921Z,7.80
2018-03-28T23:38:10.415Z,7.70
2018-03-28T23:40:37.897Z,7.70
2018-03-28T23:43:05.409Z,7.70
2018-03-28T23:45:32.900Z,7.60
2018-03-28T23:48:00.409Z,7.60
2018-03-28T23:50:27.898Z,7.50
2018-03-28T23:52:55.418Z,7.50
2018-03-28T23:55:22.905Z,7.40
2018-03-28T23:57:50.415Z,7.40
